Terminal Aerodrome Forecast
Issued by NWS Central Illinois

Home | Current Version | Previous Version | Text Only | Print | Product List | Glossary On
Versions: 1 2 3 4 5 6 7 8 9 10 11 12 13 14 15 16 17 18 19 20 21 22 23
000
FTUS43 KILX 031300 CCA
TAFPIA
TAF COR
KPIA 031347Z 0314/0412 17015KT 3SM BR BKN006 OVC012
      TEMPO 0314/0315 1 1/2SM -FZRA
     FM031600 19014G22KT 3SM BR BKN007 OVC015
     FM032100 25013G19KT P6SM OVC015
     FM040200 30013KT P6SM OVC020=

USA.gov is the U.S. government's official web portal to all federal, state and local government web resources and services.